Buffalo, WY

7:10 AM MDT on September 18, 2014 (GMT -0600)
Esponda Ranch | Change Station
CLOSE
Current Station
Personal Weather Station
Location: Buffalo, WY
Elevation: 4665 ft
Nearby Weather Stations
Active Advisory: Special Statement Active Notice: Record Report

Elev 4665 ft 44.32 °N, 106.67 °W | Updated 7 minutes ago

Clear
Clear
58.3 °F
Feels Like 58.3 °F
N
0.0
Wind Variable Wind from SW
Gusts 1.0 mph

Today
High -- | Low -- °F
--% Chance of Precip.
Yesterday
High -- | Low -- °F
Precip. -- in
6:49 AM 7:11 PM
Waning Crescent, 27% visible
Pressure 29.77 in
Visibility 10.0 miles
Clouds Clear
Dew Point 44 °F
Humidity 58%
Rainfall 0.00 in
Snow Depth 0 in , 0 in , 0 in
UV 0 out of 12
Pollen 6.00 out of 12
Air Quality Not available.
Flu Activity Not available.
METAR KBYG 181253Z AUTO 13007KT 10SM CLR 18/04 A2992 RMK AO2 SLP079 T01830039

More Conditions Fewer Conditions

Pressure 29.77 in
Visibility 10.0 miles
Clouds Clear
Dew Point 44 °F
Humidity 58%
Rainfall 0.00 in
Snow Depth 0 in , 0 in , 0 in
UV 0 out of 12
Pollen 6.00 out of 12
Air Quality Not available.
Flu Activity Not available.
METAR KBYG 181253Z AUTO 13007KT 10SM CLR 18/04 A2992 RMK AO2 SLP079 T01830039

More Conditions Fewer Conditions

10-Day Weather Forecast

Almanac

Astronomy

Sep. 18, 2014 Rise Set
Actual Time 6:49 AM MDT 7:11 PM MDT
Civil Twilight 6:20 AM MDT 7:40 PM MDT
Nautical Twilight 5:46 AM MDT 8:14 PM MDT
Astronomical Twilight 5:10 AM MDT 8:50 PM MDT
Moon 1:35 AM MDT 4:12 PM MDT
Length of Visible Light 13h 20m
Length of Day
12h 22m
Tomorrow will be 3m 3s shorter.
Waning Crescent, 27% of the Moon is Illuminated
Today
Waning Crescent
Sep 24
New
Oct 1
First Quarter
Oct 8
Full
Oct 15
Last Quarter

Today's Extremes

State Highs State Lows

Community

WunderPhotos

Upload Photos

1,754,334 photos uploaded!

Nearby

Snow Depth

Station Depth Elevation
Bear Trap Meadow 0 in 8200 ft
Owl Creek 0 in 8975 ft
Evening Star 0 in 9200 ft
Granite Creek 0 in 6770 ft
Little Warm 0 in 9370 ft

Earthquake Activity

City Distance Mag. Time & Date
No recent earthquake activity has been reported nearby.
Minimum magnitude displayed is 2.5.

Coastal Water Temperatures

Place Temperature
No Stations Reporting

Nearby Weather Stations